Time;durP1;ratioP1;P1;durP2;ratioP2;P2;SDS_P1;SDS_P2;PMS_P1;PMS_P2;Temp;Humidity;BMP_temperature;BMP_pressure;BME280_temperature;BME280_humidity;BME280_pressure;Samples;Min_cycle;Max_cycle;Signal;HPM_P1;HPM_P2
2024/02/01 00:00:04;;;;;;;4.03;2.87;;;;;;;;;;637827;23;1177;-76
2024/02/01 00:00:19;;;;;;;4.35;2.80;;;;;;;;;;634715;23;1323;-75
2024/02/01 00:00:35;;;;;;;4.90;2.80;;;;;;;;;;634765;23;1486;-76
2024/02/01 00:00:50;;;;;;;4.95;2.70;;;;;;;;;;635097;23;1165;-76
2024/02/01 00:01:08;;;;;;;5.37;2.60;;;;;;;;;;635077;23;1097;-76
2024/02/01 00:01:23;;;;;;;5.40;2.72;;;;;;;;;;636377;23;1161;-76
2024/02/01 00:01:38;;;;;;;5.13;3.00;;;;;;;;;;638137;23;1147;-75
2024/02/01 00:01:54;;;;;;;4.57;2.95;;;;;;;;;;634759;23;1107;-76
2024/02/01 00:02:09;;;;;;;4.40;2.70;;;;;;;;;;632228;23;1048;-76
2024/02/01 00:02:24;;;;;;;4.37;2.67;;;;;;;;;;635057;23;1038;-76
2024/02/01 00:02:40;;;;;;;3.77;2.83;;;;;;;;;;634921;23;1561;-75
2024/02/01 00:02:55;;;;;;;3.80;2.90;;;;;;;;;;634998;23;1051;-76
2024/02/01 00:03:10;;;;;;;3.40;2.63;;;;;;;;;;635038;23;1188;-75
2024/02/01 00:03:25;;;;;;;3.58;2.70;;;;;;;;;;635098;23;1175;-75
2024/02/01 00:03:41;;;;;;;4.23;2.83;;;;;;;;;;632078;23;1172;-75
2024/02/01 00:03:57;;;;;;;5.05;2.80;;;;;;;;;;632525;23;1006;-76
2024/02/01 00:04:12;;;;;;;4.60;2.93;;;;;;;;;;635109;23;797;-77
2024/02/01 00:04:29;;;;;;;3.90;3.20;;;;;;;;;;632326;23;1148;-76
2024/02/01 00:04:44;;;;;;;4.05;2.95;;;;;;;;;;632084;23;1206;-76
2024/02/01 00:04:59;;;;;;;4.40;2.88;;;;;;;;;;631817;23;1282;-76
2024/02/01 00:05:15;;;;;;;4.33;3.00;;;;;;;;;;629075;23;1347;-76
2024/02/01 00:05:33;;;;;;;3.93;2.93;;;;;;;;;;632908;23;1103;-76
2024/02/01 00:05:48;;;;;;;4.63;2.97;;;;;;;;;;631964;23;1179;-76
2024/02/01 00:06:04;;;;;;;4.95;2.83;;;;;;;;;;634702;23;1279;-75
2024/02/01 00:06:19;;;;;;;5.80;2.90;;;;;;;;;;634640;23;1360;-77
2024/02/01 00:06:34;;;;;;;5.50;2.83;;;;;;;;;;631764;23;1054;-77
2024/02/01 00:06:51;;;;;;;4.20;2.70;;;;;;;;;;632000;23;1177;-76
2024/02/01 00:07:06;;;;;;;4.13;2.80;;;;;;;;;;631736;23;859;-76
2024/02/01 00:07:21;;;;;;;4.15;2.95;;;;;;;;;;631937;23;1296;-76
2024/02/01 00:07:37;;;;;;;4.43;2.93;;;;;;;;;;631492;23;1296;-76
2024/02/01 00:07:52;;;;;;;4.23;2.70;;;;;;;;;;632033;23;1153;-75
2024/02/01 00:08:07;;;;;;;4.15;2.80;;;;;;;;;;631955;23;1309;-75
2024/02/01 00:08:23;;;;;;;4.53;2.80;;;;;;;;;;631763;23;1302;-76
2024/02/01 00:08:38;;;;;;;4.13;2.70;;;;;;;;;;628701;23;1163;-76
2024/02/01 00:08:53;;;;;;;3.97;2.80;;;;;;;;;;622891;23;1244;-76
2024/02/01 00:09:09;;;;;;;4.47;2.70;;;;;;;;;;626029;23;1338;-76
2024/02/01 00:09:24;;;;;;;3.87;2.70;;;;;;;;;;625853;23;1196;-76
2024/02/01 00:09:39;;;;;;;3.00;2.70;;;;;;;;;;625643;23;1192;-76
2024/02/01 00:09:55;;;;;;;3.47;2.70;;;;;;;;;;626175;23;908;-76
2024/02/01 00:10:10;;;;;;;4.00;2.80;;;;;;;;;;626065;23;1188;-77
2024/02/01 00:10:26;;;;;;;4.00;2.90;;;;;;;;;;626601;23;896;-78
2024/02/01 00:10:41;;;;;;;3.80;2.83;;;;;;;;;;626452;23;1200;-77
2024/02/01 00:10:57;;;;;;;3.55;2.67;;;;;;;;;;629084;23;1357;-76
2024/02/01 00:11:12;;;;;;;3.83;2.80;;;;;;;;;;628946;23;1167;-77
2024/02/01 00:11:27;;;;;;;4.27;3.00;;;;;;;;;;629113;23;1096;-77
2024/02/01 00:11:43;;;;;;;4.27;2.80;;;;;;;;;;628815;23;1304;-76
2024/02/01 00:11:58;;;;;;;3.75;2.60;;;;;;;;;;631499;23;1338;-77
2024/02/01 00:12:14;;;;;;;3.77;2.70;;;;;;;;;;629072;23;1187;-77
2024/02/01 00:12:29;;;;;;;3.67;2.70;;;;;;;;;;629083;23;1177;-77
2024/02/01 00:12:44;;;;;;;3.63;2.67;;;;;;;;;;628899;23;1249;-77
2024/02/01 00:13:00;;;;;;;4.07;2.80;;;;;;;;;;628759;23;1038;-77
2024/02/01 00:13:15;;;;;;;3.97;2.83;;;;;;;;;;629228;23;1166;-76
2024/02/01 00:13:32;;;;;;;4.00;2.70;;;;;;;;;;632085;23;1256;-76
2024/02/01 00:13:47;;;;;;;4.88;2.97;;;;;;;;;;634515;23;1205;-76
2024/02/01 00:14:02;;;;;;;5.47;3.03;;;;;;;;;;635007;23;1958;-76
2024/02/01 00:14:18;;;;;;;4.27;2.67;;;;;;;;;;632097;23;1180;-76
2024/02/01 00:14:33;;;;;;;3.63;2.63;;;;;;;;;;634738;23;1246;-77
2024/02/01 00:14:49;;;;;;;3.87;2.77;;;;;;;;;;634852;23;1237;-77
2024/02/01 00:15:05;;;;;;;4.28;2.90;;;;;;;;;;631852;23;1217;-77
2024/02/01 00:15:20;;;;;;;4.18;2.83;;;;;;;;;;632128;23;911;-76
2024/02/01 00:15:36;;;;;;;3.77;2.77;;;;;;;;;;632353;23;999;-77
2024/02/01 00:15:51;;;;;;;3.75;2.80;;;;;;;;;;631851;23;1302;-76
2024/02/01 00:16:06;;;;;;;4.50;2.90;;;;;;;;;;631950;23;1203;-77
2024/02/01 00:16:22;;;;;;;5.10;2.92;;;;;;;;;;632617;23;1055;-77
2024/02/01 00:16:38;;;;;;;4.33;2.80;;;;;;;;;;637794;23;1341;-75
2024/02/01 00:16:53;;;;;;;5.13;2.92;;;;;;;;;;637171;23;1176;-76
2024/02/01 00:17:08;;;;;;;5.03;3.00;;;;;;;;;;634287;23;1216;-77
2024/02/01 00:17:24;;;;;;;4.00;2.73;;;;;;;;;;635288;23;793;-75
2024/02/01 00:17:39;;;;;;;4.45;2.70;;;;;;;;;;637800;23;1079;-75
2024/02/01 00:17:55;;;;;;;4.70;2.80;;;;;;;;;;637648;23;1417;-76
2024/02/01 00:18:10;;;;;;;4.30;2.65;;;;;;;;;;632109;23;1140;-76
2024/02/01 00:18:25;;;;;;;3.73;2.70;;;;;;;;;;629197;23;1359;-76
2024/02/01 00:18:41;;;;;;;5.00;2.80;;;;;;;;;;632108;23;1124;-77
2024/02/01 00:18:57;;;;;;;5.75;2.90;;;;;;;;;;631900;23;1407;-76
2024/02/01 00:19:12;;;;;;;4.77;2.90;;;;;;;;;;635031;23;1194;-77
2024/02/01 00:19:27;;;;;;;4.23;2.90;;;;;;;;;;635104;23;1313;-75
2024/02/01 00:19:44;;;;;;;3.85;2.78;;;;;;;;;;634980;23;1709;-76
2024/02/01 00:19:59;;;;;;;4.25;2.90;;;;;;;;;;635290;23;907;-78
2024/02/01 00:20:15;;;;;;;5.20;3.05;;;;;;;;;;635348;23;975;-77
2024/02/01 00:20:30;;;;;;;4.57;2.90;;;;;;;;;;631819;23;1334;-77
2024/02/01 00:20:45;;;;;;;4.20;2.90;;;;;;;;;;632381;23;1074;-76
2024/02/01 00:21:01;;;;;;;3.97;2.90;;;;;;;;;;634655;23;1300;-77
2024/02/01 00:21:17;;;;;;;4.45;3.03;;;;;;;;;;635490;23;1391;-76
2024/02/01 00:21:32;;;;;;;4.72;3.00;;;;;;;;;;638133;23;1203;-77
2024/02/01 00:21:49;;;;;;;4.38;2.90;;;;;;;;;;638090;23;1222;-76
2024/02/01 00:22:04;;;;;;;3.83;2.80;;;;;;;;;;634949;23;1327;-76
2024/02/01 00:22:21;;;;;;;4.27;2.90;;;;;;;;;;635267;23;1036;-77
2024/02/01 00:22:36;;;;;;;4.38;3.00;;;;;;;;;;635306;23;1213;-76
2024/02/01 00:22:51;;;;;;;4.10;2.77;;;;;;;;;;634857;23;1154;-77
2024/02/01 00:23:07;;;;;;;4.32;2.80;;;;;;;;;;635178;23;1377;-77
2024/02/01 00:23:22;;;;;;;4.20;3.00;;;;;;;;;;635007;23;1398;-76
2024/02/01 00:23:37;;;;;;;4.43;3.10;;;;;;;;;;635162;23;988;-76
2024/02/01 00:23:53;;;;;;;4.40;3.07;;;;;;;;;;635566;23;1342;-77
2024/02/01 00:24:09;;;;;;;5.38;3.03;;;;;;;;;;638123;23;1201;-77
2024/02/01 00:24:25;;;;;;;4.70;2.83;;;;;;;;;;638459;23;1017;-76
2024/02/01 00:24:40;;;;;;;3.57;2.90;;;;;;;;;;638347;23;1030;-77
2024/02/01 00:24:56;;;;;;;3.87;2.90;;;;;;;;;;638156;23;1098;-76
2024/02/01 00:25:11;;;;;;;4.10;2.83;;;;;;;;;;638167;23;1242;-77
2024/02/01 00:25:26;;;;;;;4.03;2.90;;;;;;;;;;638250;23;1091;-76
2024/02/01 00:25:41;;;;;;;4.10;2.90;;;;;;;;;;635480;23;1279;-76
2024/02/01 00:25:57;;;;;;;4.70;2.93;;;;;;;;;;635200;23;1181;-76
2024/02/01 00:26:12;;;;;;;4.43;3.10;;;;;;;;;;629117;23;1277;-76
2024/02/01 00:26:27;;;;;;;3.80;3.00;;;;;;;;;;626065;23;1443;-77
2024/02/01 00:26:43;;;;;;;4.43;2.95;;;;;;;;;;626083;23;1364;-76
2024/02/01 00:27:01;;;;;;;4.67;2.80;;;;;;;;;;622833;23;1183;-80
2024/02/01 00:27:17;;;;;;;4.88;3.10;;;;;;;;;;628959;23;1299;-77
2024/02/01 00:27:32;;;;;;;5.97;3.40;;;;;;;;;;632265;23;1015;-77
2024/02/01 00:27:47;;;;;;;5.67;3.10;;;;;;;;;;632052;23;1240;-77
2024/02/01 00:28:05;;;;;;;4.85;3.20;;;;;;;;;;633118;23;824;-76
2024/02/01 00:28:21;;;;;;;5.00;3.17;;;;;;;;;;636908;23;917;-77
2024/02/01 00:28:36;;;;;;;5.20;3.20;;;;;;;;;;638465;23;784;-76
2024/02/01 00:28:51;;;;;;;4.72;3.10;;;;;;;;;;638351;23;812;-77
2024/02/01 00:29:07;;;;;;;4.03;2.90;;;;;;;;;;635105;23;1235;-76
2024/02/01 00:29:22;;;;;;;4.50;2.80;;;;;;;;;;635169;23;1241;-77
2024/02/01 00:29:37;;;;;;;4.38;2.67;;;;;;;;;;631362;23;1330;-76
2024/02/01 00:29:53;;;;;;;3.77;2.60;;;;;;;;;;632075;23;1038;-76
2024/02/01 00:30:08;;;;;;;4.33;3.00;;;;;;;;;;631792;23;1097;-76
2024/02/01 00:30:24;;;;;;;4.72;3.10;;;;;;;;;;631934;23;1222;-76
2024/02/01 00:30:41;;;;;;;4.50;3.10;;;;;;;;;;632067;23;1002;-76
2024/02/01 00:30:56;;;;;;;4.85;3.03;;;;;;;;;;631923;23;1211;-77
2024/02/01 00:31:12;;;;;;;4.20;2.90;;;;;;;;;;632763;23;1070;-76
2024/02/01 00:31:28;;;;;;;4.70;3.03;;;;;;;;;;635961;23;1018;-76
2024/02/01 00:31:44;;;;;;;5.30;3.00;;;;;;;;;;638287;23;812;-77
2024/02/01 00:31:59;;;;;;;4.43;2.80;;;;;;;;;;637124;23;1149;-76
2024/02/01 00:32:14;;;;;;;4.25;2.85;;;;;;;;;;638469;23;851;-75
2024/02/01 00:32:31;;;;;;;3.97;2.90;;;;;;;;;;637927;23;1194;-76
2024/02/01 00:32:47;;;;;;;4.07;3.00;;;;;;;;;;638296;23;887;-76
2024/02/01 00:33:03;;;;;;;4.50;3.03;;;;;;;;;;638071;23;1432;-76
2024/02/01 00:33:18;;;;;;;4.10;3.15;;;;;;;;;;638335;23;991;-75
2024/02/01 00:33:35;;;;;;;4.10;3.17;;;;;;;;;;634864;23;1208;-76
2024/02/01 00:33:50;;;;;;;4.30;3.17;;;;;;;;;;628912;23;1666;-77
2024/02/01 00:34:06;;;;;;;4.20;3.00;;;;;;;;;;629017;23;1891;-77
2024/02/01 00:34:21;;;;;;;3.97;3.10;;;;;;;;;;626242;23;1270;-76
2024/02/01 00:34:42;;;;;;;4.20;3.20;;;;;;;;;;626082;23;1386;-76
2024/02/01 00:34:57;;;;;;;4.25;3.00;;;;;;;;;;627791;23;826;-76
2024/02/01 00:35:13;;;;;;;3.80;2.90;;;;;;;;;;628924;23;1263;-76
2024/02/01 00:35:28;;;;;;;3.80;2.90;;;;;;;;;;630602;23;1108;-76
2024/02/01 00:35:45;;;;;;;4.82;3.03;;;;;;;;;;631614;23;1004;-77
2024/02/01 00:36:00;;;;;;;5.10;3.10;;;;;;;;;;635418;23;867;-76
2024/02/01 00:36:15;;;;;;;4.45;3.10;;;;;;;;;;636527;23;1101;-76
2024/02/01 00:36:31;;;;;;;4.23;3.03;;;;;;;;;;634782;23;1224;-75
2024/02/01 00:36:46;;;;;;;4.00;3.10;;;;;;;;;;629052;23;1228;-76
2024/02/01 00:37:01;;;;;;;4.40;3.28;;;;;;;;;;625239;23;1098;-76
2024/02/01 00:37:17;;;;;;;5.07;3.23;;;;;;;;;;626035;23;1185;-75
2024/02/01 00:37:32;;;;;;;5.47;3.20;;;;;;;;;;626703;23;924;-75
2024/02/01 00:37:47;;;;;;;5.18;3.20;;;;;;;;;;628884;23;1362;-75
2024/02/01 00:38:03;;;;;;;4.57;3.13;;;;;;;;;;628972;23;1121;-76
2024/02/01 00:38:18;;;;;;;4.63;3.23;;;;;;;;;;632081;23;1271;-76
2024/02/01 00:38:35;;;;;;;4.37;3.20;;;;;;;;;;634946;23;1130;-77
2024/02/01 00:38:50;;;;;;;4.10;3.28;;;;;;;;;;638177;23;1379;-76
2024/02/01 00:39:06;;;;;;;4.20;3.20;;;;;;;;;;638225;23;954;-76
2024/02/01 00:39:21;;;;;;;4.47;3.10;;;;;;;;;;634563;23;1019;-76
2024/02/01 00:39:36;;;;;;;5.10;3.20;;;;;;;;;;634779;23;1212;-76
2024/02/01 00:39:51;;;;;;;5.63;3.30;;;;;;;;;;635425;23;1337;-76
2024/02/01 00:40:07;;;;;;;5.13;3.43;;;;;;;;;;634462;23;1286;-75
2024/02/01 00:40:23;;;;;;;4.15;3.15;;;;;;;;;;633000;23;1014;-76
2024/02/01 00:40:38;;;;;;;3.80;2.90;;;;;;;;;;632035;23;1292;-75
2024/02/01 00:40:53;;;;;;;4.47;3.08;;;;;;;;;;628674;23;1338;-76
2024/02/01 00:41:08;;;;;;;5.00;3.40;;;;;;;;;;631689;23;1235;-76
2024/02/01 00:41:24;;;;;;;5.10;3.50;;;;;;;;;;631868;23;1227;-76
2024/02/01 00:41:39;;;;;;;4.80;3.28;;;;;;;;;;631969;23;1166;-75
2024/02/01 00:41:55;;;;;;;4.03;3.10;;;;;;;;;;631813;23;1125;-76
2024/02/01 00:42:10;;;;;;;3.77;3.30;;;;;;;;;;634754;23;1136;-76
2024/02/01 00:42:26;;;;;;;4.57;3.40;;;;;;;;;;635104;23;859;-76
2024/02/01 00:42:41;;;;;;;5.18;3.30;;;;;;;;;;632348;23;1202;-76
2024/02/01 00:42:56;;;;;;;4.93;3.30;;;;;;;;;;635335;23;994;-75
2024/02/01 00:43:12;;;;;;;4.80;3.47;;;;;;;;;;632109;23;1383;-77
2024/02/01 00:43:27;;;;;;;5.57;3.50;;;;;;;;;;631577;23;1125;-76
2024/02/01 00:43:42;;;;;;;5.43;3.40;;;;;;;;;;632062;23;1040;-76
2024/02/01 00:43:58;;;;;;;4.30;3.47;;;;;;;;;;632070;23;1263;-75
2024/02/01 00:44:13;;;;;;;4.28;3.60;;;;;;;;;;635226;23;1091;-76
2024/02/01 00:44:29;;;;;;;4.13;3.33;;;;;;;;;;635118;23;1121;-77
2024/02/01 00:44:44;;;;;;;4.82;3.33;;;;;;;;;;631771;23;1204;-76
2024/02/01 00:44:59;;;;;;;5.23;3.37;;;;;;;;;;632366;23;1272;-76
2024/02/01 00:45:15;;;;;;;5.00;3.43;;;;;;;;;;634851;23;1171;-77
2024/02/01 00:45:30;;;;;;;5.65;3.60;;;;;;;;;;635298;23;1050;-77
2024/02/01 00:45:45;;;;;;;4.63;3.30;;;;;;;;;;631703;23;1262;-76
2024/02/01 00:46:01;;;;;;;4.07;3.20;;;;;;;;;;631989;23;887;-76
2024/02/01 00:46:16;;;;;;;5.05;3.30;;;;;;;;;;629021;23;1187;-75
2024/02/01 00:46:32;;;;;;;4.60;3.50;;;;;;;;;;629545;23;1317;-76
2024/02/01 00:46:47;;;;;;;4.82;3.50;;;;;;;;;;632079;23;1220;-75
2024/02/01 00:47:03;;;;;;;5.77;3.53;;;;;;;;;;631856;23;1286;-75
2024/02/01 00:47:19;;;;;;;5.13;3.60;;;;;;;;;;635392;23;836;-75
2024/02/01 00:47:34;;;;;;;4.47;3.47;;;;;;;;;;635088;23;1355;-75
2024/02/01 00:47:49;;;;;;;4.83;3.60;;;;;;;;;;634905;23;1334;-75
2024/02/01 00:48:05;;;;;;;4.90;3.60;;;;;;;;;;632310;23;1172;-75
2024/02/01 00:48:20;;;;;;;4.72;3.58;;;;;;;;;;638385;23;1123;-76
2024/02/01 00:48:36;;;;;;;4.37;3.53;;;;;;;;;;638011;23;1079;-75
2024/02/01 00:48:52;;;;;;;4.70;3.50;;;;;;;;;;638293;23;865;-76
2024/02/01 00:49:07;;;;;;;5.22;3.63;;;;;;;;;;638168;23;1203;-76
2024/02/01 00:49:22;;;;;;;4.70;3.57;;;;;;;;;;637566;23;1138;-76
2024/02/01 00:49:38;;;;;;;4.28;3.40;;;;;;;;;;635577;23;1165;-76
2024/02/01 00:49:53;;;;;;;4.23;3.40;;;;;;;;;;634731;23;1171;-76
2024/02/01 00:50:09;;;;;;;5.03;3.43;;;;;;;;;;634816;23;1071;-76
2024/02/01 00:50:24;;;;;;;5.40;3.50;;;;;;;;;;635168;23;1279;-76
2024/02/01 00:50:39;;;;;;;4.90;3.43;;;;;;;;;;634955;23;1173;-76
2024/02/01 00:50:55;;;;;;;4.70;3.50;;;;;;;;;;631953;23;1327;-76
2024/02/01 00:51:10;;;;;;;5.23;3.83;;;;;;;;;;632477;23;1091;-76
2024/02/01 00:51:26;;;;;;;5.72;3.90;;;;;;;;;;635208;23;788;-76
2024/02/01 00:51:42;;;;;;;5.80;3.80;;;;;;;;;;635199;23;1406;-76
2024/02/01 00:51:58;;;;;;;5.15;3.70;;;;;;;;;;637931;23;1142;-80
2024/02/01 00:52:14;;;;;;;4.72;3.60;;;;;;;;;;634715;23;1257;-76
2024/02/01 00:52:29;;;;;;;5.47;3.70;;;;;;;;;;634829;23;1295;-76
2024/02/01 00:52:46;;;;;;;6.55;4.07;;;;;;;;;;635158;23;1399;-77
2024/02/01 00:53:01;;;;;;;5.93;4.00;;;;;;;;;;638013;23;1199;-77
2024/02/01 00:53:17;;;;;;;4.80;3.70;;;;;;;;;;637949;23;1249;-76
2024/02/01 00:53:32;;;;;;;4.90;3.77;;;;;;;;;;638151;23;861;-76
2024/02/01 00:53:48;;;;;;;5.20;3.88;;;;;;;;;;637614;23;1273;-76
2024/02/01 00:54:03;;;;;;;4.47;3.57;;;;;;;;;;634651;23;1948;-77
2024/02/01 00:54:18;;;;;;;4.57;3.57;;;;;;;;;;634646;23;1107;-76
2024/02/01 00:54:36;;;;;;;4.68;3.80;;;;;;;;;;634476;23;1370;-75
2024/02/01 00:54:52;;;;;;;4.35;3.75;;;;;;;;;;631859;23;1296;-75
2024/02/01 00:55:08;;;;;;;4.90;3.70;;;;;;;;;;632109;23;1037;-76
2024/02/01 00:55:23;;;;;;;4.72;3.63;;;;;;;;;;632127;23;1112;-76
2024/02/01 00:55:40;;;;;;;4.80;3.60;;;;;;;;;;632915;23;1165;-75
2024/02/01 00:55:57;;;;;;;5.15;3.60;;;;;;;;;;636340;23;1061;-75
2024/02/01 00:56:13;;;;;;;5.97;3.83;;;;;;;;;;632180;23;1365;-76
2024/02/01 00:56:28;;;;;;;5.32;3.67;;;;;;;;;;626018;23;1252;-76
2024/02/01 00:56:43;;;;;;;4.88;3.75;;;;;;;;;;628580;23;1223;-77
2024/02/01 00:56:59;;;;;;;5.40;4.00;;;;;;;;;;628587;23;1196;-76
2024/02/01 00:57:14;;;;;;;5.10;3.77;;;;;;;;;;626213;23;1139;-77
2024/02/01 00:57:29;;;;;;;4.40;3.33;;;;;;;;;;628888;23;1173;-77
2024/02/01 00:57:45;;;;;;;4.30;3.42;;;;;;;;;;628987;23;1234;-77
2024/02/01 00:58:00;;;;;;;5.17;3.80;;;;;;;;;;628575;23;1391;-76
2024/02/01 00:58:15;;;;;;;5.63;4.00;;;;;;;;;;632191;23;1324;-76
2024/02/01 00:58:30;;;;;;;5.60;3.93;;;;;;;;;;631834;23;1317;-76
2024/02/01 00:58:45;;;;;;;4.97;3.80;;;;;;;;;;634613;23;1261;-76
2024/02/01 00:59:01;;;;;;;4.90;3.77;;;;;;;;;;638215;23;1282;-75
2024/02/01 00:59:17;;;;;;;5.50;3.93;;;;;;;;;;637807;23;1230;-75
2024/02/01 00:59:32;;;;;;;5.40;4.03;;;;;;;;;;638282;23;950;-76
2024/02/01 00:59:48;;;;;;;5.77;4.10;;;;;;;;;;637964;23;1100;-77
2024/02/01 01:00:04;;;;;;;6.40;4.10;;;;;;;;;;637660;23;1415;-76
2024/02/01 01:00:20;;;;;;;5.43;3.90;;;;;;;;;;640831;23;1331;-76
2024/02/01 01:00:35;;;;;;;4.43;3.80;;;;;;;;;;641116;23;1097;-77
2024/02/01 01:00:50;;;;;;;4.57;3.75;;;;;;;;;;637454;23;1219;-76
2024/02/01 01:01:06;;;;;;;5.13;3.80;;;;;;;;;;634631;23;900;-75
2024/02/01 01:01:21;;;;;;;4.60;3.80;;;;;;;;;;634829;23;1109;-76
2024/02/01 01:01:36;;;;;;;4.20;3.70;;;;;;;;;;634633;23;1195;-76
2024/02/01 01:01:51;;;;;;;4.97;3.88;;;;;;;;;;637617;23;1517;-76
2024/02/01 01:02:07;;;;;;;5.40;4.20;;;;;;;;;;637788;23;1013;-75
2024/02/01 01:02:22;;;;;;;5.10;4.10;;;;;;;;;;632151;23;1304;-76
2024/02/01 01:02:37;;;;;;;5.35;4.00;;;;;;;;;;628368;23;1330;-76
2024/02/01 01:02:53;;;;;;;5.30;4.13;;;;;;;;;;625994;23;1143;-76
2024/02/01 01:03:08;;;;;;;4.43;4.00;;;;;;;;;;629002;23;1067;-76
2024/02/01 01:03:23;;;;;;;4.72;3.83;;;;;;;;;;628609;23;1231;-76
2024/02/01 01:03:38;;;;;;;6.17;4.23;;;;;;;;;;628978;23;1313;-76
2024/02/01 01:03:55;;;;;;;6.27;4.33;;;;;;;;;;628908;23;1077;-76
2024/02/01 01:04:10;;;;;;;5.38;4.05;;;;;;;;;;626492;23;1061;-76
2024/02/01 01:04:26;;;;;;;5.17;4.10;;;;;;;;;;625826;23;1092;-76
2024/02/01 01:04:41;;;;;;;5.53;4.10;;;;;;;;;;626278;23;1120;-76
2024/02/01 01:04:57;;;;;;;5.57;4.10;;;;;;;;;;626319;23;1520;-76
2024/02/01 01:05:13;;;;;;;4.78;3.83;;;;;;;;;;629999;23;1377;-76
2024/02/01 01:05:29;;;;;;;4.88;3.88;;;;;;;;;;632105;23;1168;-76
2024/02/01 01:05:44;;;;;;;5.35;4.07;;;;;;;;;;632106;23;1261;-76
2024/02/01 01:06:00;;;;;;;5.70;4.10;;;;;;;;;;634576;23;1229;-76
2024/02/01 01:06:15;;;;;;;5.67;4.37;;;;;;;;;;635101;23;962;-75
2024/02/01 01:06:30;;;;;;;5.35;4.28;;;;;;;;;;632145;23;1034;-76
2024/02/01 01:06:46;;;;;;;5.17;4.03;;;;;;;;;;634780;23;993;-76
2024/02/01 01:07:01;;;;;;;5.00;4.17;;;;;;;;;;634555;23;1299;-77
2024/02/01 01:07:17;;;;;;;4.93;4.18;;;;;;;;;;634927;23;812;-75
2024/02/01 01:07:33;;;;;;;4.95;4.25;;;;;;;;;;629864;23;1378;-76
2024/02/01 01:07:48;;;;;;;5.60;4.50;;;;;;;;;;632608;23;911;-76
2024/02/01 01:08:04;;;;;;;5.37;4.17;;;;;;;;;;635447;23;1296;-75
2024/02/01 01:08:19;;;;;;;5.70;4.00;;;;;;;;;;638151;23;1436;-75
2024/02/01 01:08:35;;;;;;;6.77;4.43;;;;;;;;;;638011;23;1167;-75
2024/02/01 01:08:51;;;;;;;6.25;4.30;;;;;;;;;;634937;23;1110;-76
2024/02/01 01:09:06;;;;;;;5.65;3.97;;;;;;;;;;635263;23;1067;-77
2024/02/01 01:09:22;;;;;;;5.67;4.13;;;;;;;;;;635826;23;867;-75
2024/02/01 01:09:37;;;;;;;6.18;4.22;;;;;;;;;;634820;23;1110;-75
2024/02/01 01:09:52;;;;;;;6.83;4.30;;;;;;;;;;634604;23;1251;-76
2024/02/01 01:10:09;;;;;;;6.73;4.37;;;;;;;;;;632113;23;1219;-76
2024/02/01 01:10:24;;;;;;;5.88;4.35;;;;;;;;;;631958;23;1239;-76
2024/02/01 01:10:39;;;;;;;5.43;4.50;;;;;;;;;;632284;23;939;-76
2024/02/01 01:10:55;;;;;;;5.40;4.30;;;;;;;;;;631611;23;1095;-76
2024/02/01 01:11:10;;;;;;;5.85;4.47;;;;;;;;;;629201;23;1269;-76
2024/02/01 01:11:26;;;;;;;5.83;4.60;;;;;;;;;;629376;23;1297;-76
2024/02/01 01:11:42;;;;;;;5.35;4.10;;;;;;;;;;628690;23;1293;-76
2024/02/01 01:11:57;;;;;;;5.78;4.10;;;;;;;;;;629322;23;1490;-76
2024/02/01 01:12:13;;;;;;;6.27;4.53;;;;;;;;;;631989;23;1362;-75
2024/02/01 01:12:30;;;;;;;5.60;4.60;;;;;;;;;;631565;23;1213;-76
2024/02/01 01:12:45;;;;;;;5.03;4.53;;;;;;;;;;628924;23;1370;-76
2024/02/01 01:13:01;;;;;;;5.63;4.50;;;;;;;;;;628429;23;1224;-75
2024/02/01 01:13:16;;;;;;;5.68;4.45;;;;;;;;;;628751;23;1126;-76
2024/02/01 01:13:31;;;;;;;5.93;4.50;;;;;;;;;;626215;23;1293;-76
2024/02/01 01:13:47;;;;;;;6.13;4.38;;;;;;;;;;626048;23;859;-76
2024/02/01 01:14:02;;;;;;;5.83;4.40;;;;;;;;;;631582;23;1946;-76
2024/02/01 01:14:18;;;;;;;5.32;4.32;;;;;;;;;;631858;23;1177;-75
2024/02/01 01:14:33;;;;;;;4.90;4.30;;;;;;;;;;631740;23;1131;-76
2024/02/01 01:14:49;;;;;;;5.38;4.40;;;;;;;;;;632144;23;848;-76
2024/02/01 01:15:05;;;;;;;5.77;4.50;;;;;;;;;;631805;23;1185;-77
2024/02/01 01:15:20;;;;;;;6.22;4.55;;;;;;;;;;632684;23;884;-74
2024/02/01 01:15:35;;;;;;;6.90;4.50;;;;;;;;;;632097;23;1127;-76
2024/02/01 01:15:50;;;;;;;6.20;4.43;;;;;;;;;;632110;23;1202;-75
2024/02/01 01:16:06;;;;;;;5.47;4.63;;;;;;;;;;632361;23;1251;-76
2024/02/01 01:16:21;;;;;;;6.40;4.80;;;;;;;;;;635324;23;799;-76
2024/02/01 01:16:36;;;;;;;6.10;4.60;;;;;;;;;;634570;23;1332;-76
2024/02/01 01:16:52;;;;;;;5.35;4.50;;;;;;;;;;631909;23;1339;-75
2024/02/01 01:17:08;;;;;;;5.70;4.70;;;;;;;;;;631123;23;1208;-76
2024/02/01 01:17:23;;;;;;;5.63;4.68;;;;;;;;;;632317;23;1268;-76
2024/02/01 01:17:38;;;;;;;5.53;4.37;;;;;;;;;;634888;23;1388;-76
2024/02/01 01:17:54;;;;;;;5.80;4.50;;;;;;;;;;628776;23;1141;-76
2024/02/01 01:18:09;;;;;;;5.97;4.70;;;;;;;;;;632077;23;1171;-76
2024/02/01 01:18:24;;;;;;;5.73;4.70;;;;;;;;;;631972;23;968;-76
2024/02/01 01:18:39;;;;;;;5.70;4.57;;;;;;;;;;631679;23;1285;-76
2024/02/01 01:18:55;;;;;;;5.75;4.50;;;;;;;;;;631720;23;1293;-76
2024/02/01 01:19:10;;;;;;;6.90;4.70;;;;;;;;;;634802;23;1369;-76
2024/02/01 01:19:25;;;;;;;7.70;5.10;;;;;;;;;;634834;23;922;-76
2024/02/01 01:19:41;;;;;;;6.78;5.07;;;;;;;;;;634480;23;1172;-76
2024/02/01 01:20:02;;;;;;;6.73;5.00;;;;;;;;;;634494;23;1328;-76
2024/02/01 01:20:18;;;;;;;6.10;5.20;;;;;;;;;;635224;23;895;-76
2024/02/01 01:20:33;;;;;;;6.67;5.10;;;;;;;;;;635144;23;1146;-75
2024/02/01 01:20:49;;;;;;;6.85;5.00;;;;;;;;;;634987;23;1111;-75
2024/02/01 01:21:04;;;;;;;6.40;5.10;;;;;;;;;;635227;23;780;-75
2024/02/01 01:21:19;;;;;;;7.20;5.00;;;;;;;;;;631902;23;1254;-75
2024/02/01 01:21:35;;;;;;;7.03;5.00;;;;;;;;;;634996;23;1268;-75
2024/02/01 01:21:51;;;;;;;6.87;4.90;;;;;;;;;;631818;23;1251;-76
2024/02/01 01:22:06;;;;;;;6.60;4.80;;;;;;;;;;631537;23;1303;-76
2024/02/01 01:22:22;;;;;;;6.50;4.75;;;;;;;;;;631693;23;1450;-74
2024/02/01 01:22:37;;;;;;;6.77;5.07;;;;;;;;;;631998;23;996;-75
2024/02/01 01:22:52;;;;;;;7.43;5.37;;;;;;;;;;631861;23;1372;-76
2024/02/01 01:23:08;;;;;;;8.45;5.40;;;;;;;;;;631792;23;939;-77
2024/02/01 01:23:24;;;;;;;8.00;5.20;;;;;;;;;;634816;23;1323;-77
2024/02/01 01:23:39;;;;;;;6.90;5.10;;;;;;;;;;635119;23;1210;-75
2024/02/01 01:23:55;;;;;;;6.20;5.10;;;;;;;;;;631503;23;1324;-75
2024/02/01 01:24:10;;;;;;;6.93;5.00;;;;;;;;;;632112;23;1087;-76
2024/02/01 01:24:26;;;;;;;6.57;5.10;;;;;;;;;;631771;23;1216;-76
2024/02/01 01:24:41;;;;;;;5.83;5.20;;;;;;;;;;631845;23;1257;-75
2024/02/01 01:24:56;;;;;;;6.37;5.60;;;;;;;;;;628674;23;1199;-75
2024/02/01 01:25:13;;;;;;;6.72;5.63;;;;;;;;;;629744;23;907;-76
2024/02/01 01:25:28;;;;;;;7.60;5.55;;;;;;;;;;632129;23;847;-76
2024/02/01 01:25:44;;;;;;;8.07;5.57;;;;;;;;;;632121;23;1237;-76
2024/02/01 01:25:59;;;;;;;7.30;5.63;;;;;;;;;;634779;23;1463;-75
2024/02/01 01:26:20;;;;;;;7.10;5.55;;;;;;;;;;631963;23;1180;-76
2024/02/01 01:26:36;;;;;;;7.50;5.63;;;;;;;;;;633979;23;914;-75
2024/02/01 01:26:51;;;;;;;8.17;5.77;;;;;;;;;;633570;23;1192;-75
2024/02/01 01:27:06;;;;;;;7.78;5.50;;;;;;;;;;631385;23;1219;-76
2024/02/01 01:27:22;;;;;;;6.20;5.10;;;;;;;;;;628935;23;1197;-77
2024/02/01 01:27:37;;;;;;;7.07;5.10;;;;;;;;;;628597;23;1174;-76
2024/02/01 01:27:52;;;;;;;7.10;5.30;;;;;;;;;;625785;23;1413;-76
2024/02/01 01:28:08;;;;;;;6.35;5.40;;;;;;;;;;627117;23;1235;-75
2024/02/01 01:28:23;;;;;;;6.97;5.45;;;;;;;;;;629139;23;1254;-75
2024/02/01 01:28:38;;;;;;;7.03;5.70;;;;;;;;;;631976;23;1252;-75
2024/02/01 01:28:54;;;;;;;6.87;5.80;;;;;;;;;;634951;23;1273;-76
2024/02/01 01:29:09;;;;;;;7.40;5.80;;;;;;;;;;637999;23;1180;-75
2024/02/01 01:29:24;;;;;;;8.00;5.82;;;;;;;;;;637930;23;1437;-75
2024/02/01 01:29:40;;;;;;;7.23;5.50;;;;;;;;;;638048;23;977;-75
2024/02/01 01:29:55;;;;;;;7.03;5.60;;;;;;;;;;637884;23;1057;-75
2024/02/01 01:30:11;;;;;;;6.90;5.65;;;;;;;;;;634749;23;1197;-76
2024/02/01 01:30:26;;;;;;;6.67;5.37;;;;;;;;;;632241;23;1234;-75
2024/02/01 01:30:41;;;;;;;8.10;5.60;;;;;;;;;;631653;23;1144;-75
2024/02/01 01:30:56;;;;;;;8.30;5.90;;;;;;;;;;634649;23;1280;-76
2024/02/01 01:31:12;;;;;;;7.23;5.80;;;;;;;;;;632120;23;1328;-76
2024/02/01 01:31:27;;;;;;;7.60;5.97;;;;;;;;;;632139;23;980;-74
2024/02/01 01:31:42;;;;;;;7.53;6.20;;;;;;;;;;631443;23;1261;-76
2024/02/01 01:31:58;;;;;;;7.23;6.00;;;;;;;;;;631878;23;1159;-76
2024/02/01 01:32:15;;;;;;;7.43;5.60;;;;;;;;;;634602;23;1441;-76
2024/02/01 01:32:31;;;;;;;7.07;5.65;;;;;;;;;;632730;23;983;-75
2024/02/01 01:32:46;;;;;;;7.25;5.70;;;;;;;;;;631669;23;1469;-76
2024/02/01 01:33:01;;;;;;;7.37;5.90;;;;;;;;;;632519;23;1379;-75
2024/02/01 01:33:17;;;;;;;7.10;6.00;;;;;;;;;;631678;23;1352;-75
2024/02/01 01:33:34;;;;;;;7.80;6.00;;;;;;;;;;632203;23;1009;-75
2024/02/01 01:33:49;;;;;;;7.63;5.93;;;;;;;;;;633013;23;1226;-75
2024/02/01 01:34:04;;;;;;;7.70;6.03;;;;;;;;;;634825;23;1909;-75
2024/02/01 01:34:20;;;;;;;7.67;6.37;;;;;;;;;;634903;23;1247;-75
2024/02/01 01:34:35;;;;;;;6.83;5.93;;;;;;;;;;635405;23;1287;-75
2024/02/01 01:34:50;;;;;;;7.20;5.80;;;;;;;;;;637735;23;1196;-74
2024/02/01 01:35:06;;;;;;;7.77;6.00;;;;;;;;;;637958;23;1195;-75
2024/02/01 01:35:21;;;;;;;7.07;5.90;;;;;;;;;;634934;23;1218;-74
2024/02/01 01:35:36;;;;;;;7.13;5.90;;;;;;;;;;634956;23;1310;-75
2024/02/01 01:35:51;;;;;;;8.60;6.20;;;;;;;;;;634868;23;1221;-76
2024/02/01 01:36:07;;;;;;;7.80;6.10;;;;;;;;;;635115;23;1033;-75
2024/02/01 01:36:22;;;;;;;6.85;6.10;;;;;;;;;;632022;23;1346;-75